sensor_id;sensor_type;location;lat;lon;timestamp;temperature;humidity
6581;DHT22;3324;50.796;7.228;2024-02-28T00:01:03;6.10;99.90
6581;DHT22;3324;50.796;7.228;2024-02-28T00:03:29;6.10;99.90
6581;DHT22;3324;50.796;7.228;2024-02-28T00:05:57;6.10;99.90
6581;DHT22;3324;50.796;7.228;2024-02-28T00:08:22;6.10;99.90
6581;DHT22;3324;50.796;7.228;2024-02-28T00:10:48;6.10;99.90
6581;DHT22;3324;50.796;7.228;2024-02-28T00:13:14;6.10;99.90
6581;DHT22;3324;50.796;7.228;2024-02-28T00:15:40;6.10;99.90
6581;DHT22;3324;50.796;7.228;2024-02-28T00:18:07;6.10;99.90
6581;DHT22;3324;50.796;7.228;2024-02-28T00:20:32;6.10;99.90
6581;DHT22;3324;50.796;7.228;2024-02-28T00:22:58;6.10;99.90
6581;DHT22;3324;50.796;7.228;2024-02-28T00:25:23;6.10;99.90
6581;DHT22;3324;50.796;7.228;2024-02-28T00:27:48;6.10;99.90
6581;DHT22;3324;50.796;7.228;2024-02-28T00:30:14;6.10;99.90
6581;DHT22;3324;50.796;7.228;2024-02-28T00:32:39;6.10;99.90
6581;DHT22;3324;50.796;7.228;2024-02-28T00:35:05;6.10;99.90
6581;DHT22;3324;50.796;7.228;2024-02-28T00:37:31;6.10;99.90
6581;DHT22;3324;50.796;7.228;2024-02-28T00:39:56;6.10;99.90
6581;DHT22;3324;50.796;7.228;2024-02-28T00:42:22;6.10;99.90
6581;DHT22;3324;50.796;7.228;2024-02-28T00:44:47;6.10;99.90
6581;DHT22;3324;50.796;7.228;2024-02-28T00:47:13;6.10;99.90
6581;DHT22;3324;50.796;7.228;2024-02-28T00:49:38;6.10;99.90
6581;DHT22;3324;50.796;7.228;2024-02-28T00:52:04;6.10;99.90
6581;DHT22;3324;50.796;7.228;2024-02-28T00:54:30;6.10;99.90
6581;DHT22;3324;50.796;7.228;2024-02-28T00:56:55;6.20;99.90
6581;DHT22;3324;50.796;7.228;2024-02-28T00:59:21;6.20;99.90
6581;DHT22;3324;50.796;7.228;2024-02-28T01:01:48;6.10;99.90
6581;DHT22;3324;50.796;7.228;2024-02-28T01:04:13;6.20;99.90
6581;DHT22;3324;50.796;7.228;2024-02-28T01:06:39;6.10;99.90
6581;DHT22;3324;50.796;7.228;2024-02-28T01:09:04;6.20;99.90
6581;DHT22;3324;50.796;7.228;2024-02-28T01:11:30;6.10;99.90
6581;DHT22;3324;50.796;7.228;2024-02-28T01:13:55;6.10;99.90
6581;DHT22;3324;50.796;7.228;2024-02-28T01:16:21;6.10;99.90
6581;DHT22;3324;50.796;7.228;2024-02-28T01:18:46;6.10;99.90
6581;DHT22;3324;50.796;7.228;2024-02-28T01:21:12;6.10;99.90
6581;DHT22;3324;50.796;7.228;2024-02-28T01:23:37;6.10;99.90
6581;DHT22;3324;50.796;7.228;2024-02-28T01:26:03;6.10;99.90
6581;DHT22;3324;50.796;7.228;2024-02-28T01:28:30;6.10;99.90
6581;DHT22;3324;50.796;7.228;2024-02-28T01:30:55;6.10;99.90
6581;DHT22;3324;50.796;7.228;2024-02-28T01:33:21;6.20;99.90
6581;DHT22;3324;50.796;7.228;2024-02-28T01:35:47;6.10;99.90
6581;DHT22;3324;50.796;7.228;2024-02-28T01:38:13;6.20;99.90
6581;DHT22;3324;50.796;7.228;2024-02-28T01:40:38;6.20;99.90
6581;DHT22;3324;50.796;7.228;2024-02-28T01:43:06;6.20;99.90
6581;DHT22;3324;50.796;7.228;2024-02-28T01:45:32;6.20;99.90
6581;DHT22;3324;50.796;7.228;2024-02-28T01:47:57;6.30;99.90
6581;DHT22;3324;50.796;7.228;2024-02-28T01:50:23;6.20;99.90
6581;DHT22;3324;50.796;7.228;2024-02-28T01:52:49;6.20;99.90
6581;DHT22;3324;50.796;7.228;2024-02-28T01:55:14;6.20;99.90
6581;DHT22;3324;50.796;7.228;2024-02-28T01:57:40;6.20;99.90
6581;DHT22;3324;50.796;7.228;2024-02-28T02:00:06;6.20;99.90
6581;DHT22;3324;50.796;7.228;2024-02-28T02:02:33;6.20;99.90
6581;DHT22;3324;50.796;7.228;2024-02-28T02:04:59;6.20;99.90
6581;DHT22;3324;50.796;7.228;2024-02-28T02:07:25;6.20;99.90
6581;DHT22;3324;50.796;7.228;2024-02-28T02:09:51;6.30;99.90
6581;DHT22;3324;50.796;7.228;2024-02-28T02:12:17;6.30;99.90
6581;DHT22;3324;50.796;7.228;2024-02-28T02:14:47;6.30;99.90
6581;DHT22;3324;50.796;7.228;2024-02-28T02:17:12;6.20;99.90
6581;DHT22;3324;50.796;7.228;2024-02-28T02:19:38;6.20;99.90
6581;DHT22;3324;50.796;7.228;2024-02-28T02:22:03;6.20;99.90
6581;DHT22;3324;50.796;7.228;2024-02-28T02:24:30;6.20;99.90
6581;DHT22;3324;50.796;7.228;2024-02-28T02:26:59;6.20;99.90
6581;DHT22;3324;50.796;7.228;2024-02-28T02:29:24;6.20;99.90
6581;DHT22;3324;50.796;7.228;2024-02-28T02:31:50;6.20;99.90
6581;DHT22;3324;50.796;7.228;2024-02-28T02:34:15;6.10;99.90
6581;DHT22;3324;50.796;7.228;2024-02-28T02:36:41;6.10;99.90
6581;DHT22;3324;50.796;7.228;2024-02-28T02:39:06;6.10;99.90
6581;DHT22;3324;50.796;7.228;2024-02-28T02:41:33;6.20;99.90
6581;DHT22;3324;50.796;7.228;2024-02-28T02:43:59;6.20;99.90
6581;DHT22;3324;50.796;7.228;2024-02-28T02:46:24;6.20;99.90
6581;DHT22;3324;50.796;7.228;2024-02-28T02:48:50;6.20;99.90
6581;DHT22;3324;50.796;7.228;2024-02-28T02:51:15;6.20;99.90
6581;DHT22;3324;50.796;7.228;2024-02-28T02:53:43;6.20;99.90
6581;DHT22;3324;50.796;7.228;2024-02-28T02:56:09;6.20;99.90
6581;DHT22;3324;50.796;7.228;2024-02-28T02:58:35;6.20;99.90
6581;DHT22;3324;50.796;7.228;2024-02-28T03:01:00;6.30;99.90
6581;DHT22;3324;50.796;7.228;2024-02-28T03:03:26;6.20;99.90
6581;DHT22;3324;50.796;7.228;2024-02-28T03:05:51;6.10;99.90
6581;DHT22;3324;50.796;7.228;2024-02-28T03:08:17;6.10;99.90
6581;DHT22;3324;50.796;7.228;2024-02-28T03:10:42;6.10;99.90
6581;DHT22;3324;50.796;7.228;2024-02-28T03:13:07;6.20;99.90
6581;DHT22;3324;50.796;7.228;2024-02-28T03:15:33;6.10;99.90
6581;DHT22;3324;50.796;7.228;2024-02-28T03:17:59;6.10;99.90
6581;DHT22;3324;50.796;7.228;2024-02-28T03:20:24;6.10;99.90
6581;DHT22;3324;50.796;7.228;2024-02-28T03:22:51;6.10;99.90
6581;DHT22;3324;50.796;7.228;2024-02-28T03:25:16;6.20;99.90
6581;DHT22;3324;50.796;7.228;2024-02-28T03:27:42;6.20;99.90
6581;DHT22;3324;50.796;7.228;2024-02-28T03:30:08;6.10;99.90
6581;DHT22;3324;50.796;7.228;2024-02-28T03:32:33;6.10;99.90
6581;DHT22;3324;50.796;7.228;2024-02-28T03:34:59;6.20;99.90
6581;DHT22;3324;50.796;7.228;2024-02-28T03:37:24;6.20;99.90
6581;DHT22;3324;50.796;7.228;2024-02-28T03:39:50;6.20;99.90
6581;DHT22;3324;50.796;7.228;2024-02-28T03:42:15;6.10;99.90
6581;DHT22;3324;50.796;7.228;2024-02-28T03:44:41;6.10;99.90
6581;DHT22;3324;50.796;7.228;2024-02-28T03:47:06;6.10;99.90
6581;DHT22;3324;50.796;7.228;2024-02-28T03:49:32;6.10;99.90
6581;DHT22;3324;50.796;7.228;2024-02-28T03:51:57;6.20;99.90
6581;DHT22;3324;50.796;7.228;2024-02-28T03:54:22;6.10;99.90
6581;DHT22;3324;50.796;7.228;2024-02-28T03:56:48;6.10;99.90
6581;DHT22;3324;50.796;7.228;2024-02-28T03:59:13;6.10;99.90
6581;DHT22;3324;50.796;7.228;2024-02-28T04:01:39;6.10;99.90
6581;DHT22;3324;50.796;7.228;2024-02-28T04:04:04;6.10;99.90
6581;DHT22;3324;50.796;7.228;2024-02-28T04:06:30;6.10;99.90
6581;DHT22;3324;50.796;7.228;2024-02-28T04:08:56;6.10;99.90
6581;DHT22;3324;50.796;7.228;2024-02-28T04:11:21;6.10;99.90
6581;DHT22;3324;50.796;7.228;2024-02-28T04:13:47;6.10;99.90
6581;DHT22;3324;50.796;7.228;2024-02-28T04:16:12;6.10;99.90
6581;DHT22;3324;50.796;7.228;2024-02-28T04:18:38;6.30;99.90
6581;DHT22;3324;50.796;7.228;2024-02-28T04:21:03;6.20;99.90
6581;DHT22;3324;50.796;7.228;2024-02-28T04:23:28;6.10;99.90
6581;DHT22;3324;50.796;7.228;2024-02-28T04:25:54;6.30;99.90
6581;DHT22;3324;50.796;7.228;2024-02-28T04:28:19;6.20;99.90
6581;DHT22;3324;50.796;7.228;2024-02-28T04:30:45;6.20;99.90
6581;DHT22;3324;50.796;7.228;2024-02-28T04:33:10;6.10;99.90
6581;DHT22;3324;50.796;7.228;2024-02-28T04:35:36;6.10;99.90
6581;DHT22;3324;50.796;7.228;2024-02-28T04:38:01;6.10;99.90
6581;DHT22;3324;50.796;7.228;2024-02-28T04:40:27;6.10;99.90
6581;DHT22;3324;50.796;7.228;2024-02-28T04:42:52;6.00;99.90
6581;DHT22;3324;50.796;7.228;2024-02-28T04:45:18;6.00;99.90
6581;DHT22;3324;50.796;7.228;2024-02-28T04:47:43;6.00;99.90
6581;DHT22;3324;50.796;7.228;2024-02-28T04:50:09;6.00;99.90
6581;DHT22;3324;50.796;7.228;2024-02-28T04:52:35;6.00;99.90
6581;DHT22;3324;50.796;7.228;2024-02-28T04:55:01;5.90;99.90
6581;DHT22;3324;50.796;7.228;2024-02-28T04:57:26;5.90;99.90
6581;DHT22;3324;50.796;7.228;2024-02-28T04:59:52;5.90;99.90
6581;DHT22;3324;50.796;7.228;2024-02-28T05:02:17;6.10;99.90
6581;DHT22;3324;50.796;7.228;2024-02-28T05:04:43;6.10;99.90
6581;DHT22;3324;50.796;7.228;2024-02-28T05:07:08;6.10;99.90
6581;DHT22;3324;50.796;7.228;2024-02-28T05:09:34;6.10;99.90
6581;DHT22;3324;50.796;7.228;2024-02-28T05:12:00;6.00;99.90
6581;DHT22;3324;50.796;7.228;2024-02-28T05:14:26;6.00;99.90
6581;DHT22;3324;50.796;7.228;2024-02-28T05:16:51;6.00;99.90
6581;DHT22;3324;50.796;7.228;2024-02-28T05:19:17;6.00;99.90
6581;DHT22;3324;50.796;7.228;2024-02-28T05:21:45;6.00;99.90
6581;DHT22;3324;50.796;7.228;2024-02-28T05:24:11;5.90;99.90
6581;DHT22;3324;50.796;7.228;2024-02-28T05:26:37;5.90;99.90
6581;DHT22;3324;50.796;7.228;2024-02-28T05:29:03;6.00;99.90
6581;DHT22;3324;50.796;7.228;2024-02-28T05:31:29;6.00;99.90
6581;DHT22;3324;50.796;7.228;2024-02-28T05:33:55;6.00;99.90
6581;DHT22;3324;50.796;7.228;2024-02-28T05:36:24;6.00;99.90
6581;DHT22;3324;50.796;7.228;2024-02-28T05:38:50;6.00;99.90
6581;DHT22;3324;50.796;7.228;2024-02-28T05:41:16;6.10;99.90
6581;DHT22;3324;50.796;7.228;2024-02-28T05:43:41;6.10;99.90
6581;DHT22;3324;50.796;7.228;2024-02-28T05:46:07;6.10;99.90
6581;DHT22;3324;50.796;7.228;2024-02-28T05:48:32;6.10;99.90
6581;DHT22;3324;50.796;7.228;2024-02-28T05:51:00;6.10;99.90
6581;DHT22;3324;50.796;7.228;2024-02-28T05:53:25;6.10;99.90
6581;DHT22;3324;50.796;7.228;2024-02-28T05:55:52;6.00;99.90
6581;DHT22;3324;50.796;7.228;2024-02-28T05:58:19;6.00;99.90
6581;DHT22;3324;50.796;7.228;2024-02-28T06:00:44;6.10;99.90
6581;DHT22;3324;50.796;7.228;2024-02-28T06:03:10;7.50;99.90
6581;DHT22;3324;50.796;7.228;2024-02-28T06:05:35;9.20;99.90
6581;DHT22;3324;50.796;7.228;2024-02-28T06:08:01;9.80;99.90
6581;DHT22;3324;50.796;7.228;2024-02-28T06:10:26;9.10;99.90
6581;DHT22;3324;50.796;7.228;2024-02-28T06:12:52;8.40;99.90
6581;DHT22;3324;50.796;7.228;2024-02-28T06:15:17;7.90;99.90
6581;DHT22;3324;50.796;7.228;2024-02-28T06:17:43;7.40;99.90
6581;DHT22;3324;50.796;7.228;2024-02-28T06:20:08;7.00;99.90
6581;DHT22;3324;50.796;7.228;2024-02-28T06:22:34;6.90;99.90
6581;DHT22;3324;50.796;7.228;2024-02-28T06:24:59;6.80;99.90
6581;DHT22;3324;50.796;7.228;2024-02-28T06:27:25;6.80;99.90
6581;DHT22;3324;50.796;7.228;2024-02-28T06:29:52;6.70;99.90
6581;DHT22;3324;50.796;7.228;2024-02-28T06:32:17;6.40;99.90
6581;DHT22;3324;50.796;7.228;2024-02-28T06:34:43;6.40;99.90
6581;DHT22;3324;50.796;7.228;2024-02-28T06:37:08;6.30;99.90
6581;DHT22;3324;50.796;7.228;2024-02-28T06:39:33;6.20;99.90
6581;DHT22;3324;50.796;7.228;2024-02-28T06:41:59;6.10;99.90
6581;DHT22;3324;50.796;7.228;2024-02-28T06:44:24;6.10;99.90
6581;DHT22;3324;50.796;7.228;2024-02-28T06:46:50;6.00;99.90
6581;DHT22;3324;50.796;7.228;2024-02-28T06:49:15;5.90;99.90
6581;DHT22;3324;50.796;7.228;2024-02-28T06:51:42;5.90;99.90
6581;DHT22;3324;50.796;7.228;2024-02-28T06:54:08;5.90;99.90
6581;DHT22;3324;50.796;7.228;2024-02-28T06:56:34;5.90;99.90
6581;DHT22;3324;50.796;7.228;2024-02-28T06:58:59;5.90;99.90
6581;DHT22;3324;50.796;7.228;2024-02-28T07:01:24;5.90;99.90
6581;DHT22;3324;50.796;7.228;2024-02-28T07:03:50;6.00;99.90
6581;DHT22;3324;50.796;7.228;2024-02-28T07:06:15;5.90;99.90
6581;DHT22;3324;50.796;7.228;2024-02-28T07:08:41;6.00;99.90
6581;DHT22;3324;50.796;7.228;2024-02-28T07:11:12;6.00;99.90
6581;DHT22;3324;50.796;7.228;2024-02-28T07:13:38;6.00;99.90
6581;DHT22;3324;50.796;7.228;2024-02-28T07:16:03;6.00;99.90
6581;DHT22;3324;50.796;7.228;2024-02-28T07:18:29;6.60;99.90
6581;DHT22;3324;50.796;7.228;2024-02-28T07:20:55;6.60;99.90
6581;DHT22;3324;50.796;7.228;2024-02-28T07:23:20;6.60;99.90
6581;DHT22;3324;50.796;7.228;2024-02-28T07:25:46;6.70;99.90
6581;DHT22;3324;50.796;7.228;2024-02-28T07:28:11;7.00;99.90
6581;DHT22;3324;50.796;7.228;2024-02-28T07:30:37;7.30;99.90
6581;DHT22;3324;50.796;7.228;2024-02-28T07:33:04;7.20;99.90
6581;DHT22;3324;50.796;7.228;2024-02-28T07:35:30;7.10;99.90
6581;DHT22;3324;50.796;7.228;2024-02-28T07:37:55;6.80;99.90
6581;DHT22;3324;50.796;7.228;2024-02-28T07:40:21;6.70;99.90
6581;DHT22;3324;50.796;7.228;2024-02-28T07:42:46;6.50;99.90
6581;DHT22;3324;50.796;7.228;2024-02-28T07:45:12;6.40;99.90
6581;DHT22;3324;50.796;7.228;2024-02-28T07:47:37;6.50;99.90
6581;DHT22;3324;50.796;7.228;2024-02-28T07:50:03;6.50;99.90
6581;DHT22;3324;50.796;7.228;2024-02-28T07:52:28;6.40;99.90
6581;DHT22;3324;50.796;7.228;2024-02-28T07:54:54;6.30;99.90
6581;DHT22;3324;50.796;7.228;2024-02-28T07:57:19;6.40;99.90
6581;DHT22;3324;50.796;7.228;2024-02-28T07:59:45;6.30;99.90
6581;DHT22;3324;50.796;7.228;2024-02-28T08:02:10;6.50;99.90
6581;DHT22;3324;50.796;7.228;2024-02-28T08:04:38;6.40;99.90
6581;DHT22;3324;50.796;7.228;2024-02-28T08:07:04;6.30;99.90
6581;DHT22;3324;50.796;7.228;2024-02-28T08:09:30;6.20;99.90
6581;DHT22;3324;50.796;7.228;2024-02-28T08:11:55;6.20;99.90
6581;DHT22;3324;50.796;7.228;2024-02-28T08:14:23;6.20;99.90
6581;DHT22;3324;50.796;7.228;2024-02-28T08:16:48;6.40;99.90
6581;DHT22;3324;50.796;7.228;2024-02-28T08:19:14;6.30;99.90
6581;DHT22;3324;50.796;7.228;2024-02-28T08:21:39;6.30;99.90
6581;DHT22;3324;50.796;7.228;2024-02-28T08:24:05;6.30;99.90
6581;DHT22;3324;50.796;7.228;2024-02-28T08:26:31;6.30;99.90
6581;DHT22;3324;50.796;7.228;2024-02-28T08:28:56;6.30;99.90
6581;DHT22;3324;50.796;7.228;2024-02-28T08:31:22;6.20;99.90
6581;DHT22;3324;50.796;7.228;2024-02-28T08:33:47;6.20;99.90
6581;DHT22;3324;50.796;7.228;2024-02-28T08:36:13;6.30;99.90
6581;DHT22;3324;50.796;7.228;2024-02-28T08:38:40;6.30;99.90
6581;DHT22;3324;50.796;7.228;2024-02-28T08:41:05;6.40;99.90
6581;DHT22;3324;50.796;7.228;2024-02-28T08:43:31;6.50;99.90
6581;DHT22;3324;50.796;7.228;2024-02-28T08:45:56;6.30;99.90
6581;DHT22;3324;50.796;7.228;2024-02-28T08:48:22;6.20;99.90
6581;DHT22;3324;50.796;7.228;2024-02-28T08:50:48;6.30;99.90
6581;DHT22;3324;50.796;7.228;2024-02-28T08:53:14;6.30;99.90
6581;DHT22;3324;50.796;7.228;2024-02-28T08:55:39;6.30;99.90
6581;DHT22;3324;50.796;7.228;2024-02-28T08:58:05;6.40;99.90
6581;DHT22;3324;50.796;7.228;2024-02-28T09:00:30;6.30;99.90
6581;DHT22;3324;50.796;7.228;2024-02-28T09:02:56;6.30;99.90
6581;DHT22;3324;50.796;7.228;2024-02-28T09:05:22;6.40;99.90
6581;DHT22;3324;50.796;7.228;2024-02-28T09:07:48;6.50;99.90
6581;DHT22;3324;50.796;7.228;2024-02-28T09:10:16;6.40;99.90
6581;DHT22;3324;50.796;7.228;2024-02-28T09:12:46;6.40;99.90
6581;DHT22;3324;50.796;7.228;2024-02-28T09:15:12;6.50;99.90
6581;DHT22;3324;50.796;7.228;2024-02-28T09:17:37;6.40;99.90
6581;DHT22;3324;50.796;7.228;2024-02-28T09:20:03;6.50;99.90
6581;DHT22;3324;50.796;7.228;2024-02-28T09:22:29;6.50;99.90
6581;DHT22;3324;50.796;7.228;2024-02-28T09:24:55;6.60;99.90
6581;DHT22;3324;50.796;7.228;2024-02-28T09:27:20;6.60;99.90
6581;DHT22;3324;50.796;7.228;2024-02-28T09:29:46;6.50;99.90
6581;DHT22;3324;50.796;7.228;2024-02-28T09:32:11;6.50;99.90
6581;DHT22;3324;50.796;7.228;2024-02-28T09:34:37;6.50;99.90
6581;DHT22;3324;50.796;7.228;2024-02-28T09:37:02;6.60;99.90
6581;DHT22;3324;50.796;7.228;2024-02-28T09:39:29;6.60;99.90
6581;DHT22;3324;50.796;7.228;2024-02-28T09:41:54;6.70;99.90
6581;DHT22;3324;50.796;7.228;2024-02-28T09:44:20;6.80;99.90
6581;DHT22;3324;50.796;7.228;2024-02-28T09:46:47;6.90;99.90
6581;DHT22;3324;50.796;7.228;2024-02-28T09:49:14;6.90;99.90
6581;DHT22;3324;50.796;7.228;2024-02-28T09:51:40;7.00;99.90
6581;DHT22;3324;50.796;7.228;2024-02-28T09:54:06;7.00;99.90
6581;DHT22;3324;50.796;7.228;2024-02-28T09:56:32;7.10;99.90
6581;DHT22;3324;50.796;7.228;2024-02-28T09:58:58;7.20;99.90
6581;DHT22;3324;50.796;7.228;2024-02-28T10:01:27;7.20;99.90
6581;DHT22;3324;50.796;7.228;2024-02-28T10:03:53;7.30;99.90
6581;DHT22;3324;50.796;7.228;2024-02-28T10:06:19;7.30;99.90
6581;DHT22;3324;50.796;7.228;2024-02-28T10:08:45;7.30;99.90
6581;DHT22;3324;50.796;7.228;2024-02-28T10:11:17;7.30;99.90
6581;DHT22;3324;50.796;7.228;2024-02-28T10:13:42;7.30;99.90
6581;DHT22;3324;50.796;7.228;2024-02-28T10:16:08;7.50;99.90
6581;DHT22;3324;50.796;7.228;2024-02-28T10:18:33;7.60;99.90
6581;DHT22;3324;50.796;7.228;2024-02-28T10:20:59;7.80;99.90
6581;DHT22;3324;50.796;7.228;2024-02-28T10:23:25;7.90;99.90
6581;DHT22;3324;50.796;7.228;2024-02-28T10:25:51;8.00;99.90
6581;DHT22;3324;50.796;7.228;2024-02-28T10:28:17;8.10;99.90
6581;DHT22;3324;50.796;7.228;2024-02-28T10:30:43;8.10;99.90
6581;DHT22;3324;50.796;7.228;2024-02-28T10:33:15;8.10;99.90
6581;DHT22;3324;50.796;7.228;2024-02-28T10:35:41;8.10;99.90
6581;DHT22;3324;50.796;7.228;2024-02-28T10:38:10;8.00;99.90
6581;DHT22;3324;50.796;7.228;2024-02-28T10:40:36;8.10;99.90
6581;DHT22;3324;50.796;7.228;2024-02-28T10:43:02;8.20;99.90
6581;DHT22;3324;50.796;7.228;2024-02-28T10:45:29;8.20;99.90
6581;DHT22;3324;50.796;7.228;2024-02-28T10:47:56;8.20;99.90
6581;DHT22;3324;50.796;7.228;2024-02-28T10:50:22;8.30;99.90
6581;DHT22;3324;50.796;7.228;2024-02-28T10:52:47;8.40;99.90
6581;DHT22;3324;50.796;7.228;2024-02-28T10:55:20;8.30;99.90
6581;DHT22;3324;50.796;7.228;2024-02-28T10:57:45;8.30;99.90
6581;DHT22;3324;50.796;7.228;2024-02-28T11:00:13;8.30;99.90
6581;DHT22;3324;50.796;7.228;2024-02-28T11:02:41;8.30;99.90
6581;DHT22;3324;50.796;7.228;2024-02-28T11:05:08;8.30;99.90
6581;DHT22;3324;50.796;7.228;2024-02-28T11:07:34;8.40;99.90
6581;DHT22;3324;50.796;7.228;2024-02-28T11:10:03;8.60;99.90
6581;DHT22;3324;50.796;7.228;2024-02-28T11:12:29;8.70;99.90
6581;DHT22;3324;50.796;7.228;2024-02-28T11:15:01;8.70;99.90
6581;DHT22;3324;50.796;7.228;2024-02-28T11:17:31;8.80;99.90
6581;DHT22;3324;50.796;7.228;2024-02-28T11:19:57;8.90;99.90
6581;DHT22;3324;50.796;7.228;2024-02-28T11:22:22;8.90;99.90
6581;DHT22;3324;50.796;7.228;2024-02-28T11:24:48;8.90;99.90
6581;DHT22;3324;50.796;7.228;2024-02-28T11:27:15;9.00;99.90
6581;DHT22;3324;50.796;7.228;2024-02-28T11:29:41;8.90;99.90
6581;DHT22;3324;50.796;7.228;2024-02-28T11:32:06;8.90;99.90
6581;DHT22;3324;50.796;7.228;2024-02-28T11:34:33;8.80;99.90
6581;DHT22;3324;50.796;7.228;2024-02-28T11:36:59;8.90;99.90
6581;DHT22;3324;50.796;7.228;2024-02-28T11:39:24;9.00;99.90
6581;DHT22;3324;50.796;7.228;2024-02-28T11:41:51;9.00;99.90
6581;DHT22;3324;50.796;7.228;2024-02-28T11:44:17;9.10;99.90
6581;DHT22;3324;50.796;7.228;2024-02-28T11:46:47;9.20;99.90
6581;DHT22;3324;50.796;7.228;2024-02-28T11:49:12;9.20;99.90
6581;DHT22;3324;50.796;7.228;2024-02-28T11:51:41;9.30;99.90
6581;DHT22;3324;50.796;7.228;2024-02-28T11:54:08;9.20;99.90
6581;DHT22;3324;50.796;7.228;2024-02-28T11:56:36;9.30;99.90
6581;DHT22;3324;50.796;7.228;2024-02-28T11:59:02;9.30;99.90
6581;DHT22;3324;50.796;7.228;2024-02-28T12:01:35;9.40;99.90
6581;DHT22;3324;50.796;7.228;2024-02-28T12:04:02;9.40;99.90
6581;DHT22;3324;50.796;7.228;2024-02-28T12:06:28;9.40;99.90
6581;DHT22;3324;50.796;7.228;2024-02-28T12:08:54;9.40;99.90
6581;DHT22;3324;50.796;7.228;2024-02-28T12:11:20;9.30;99.90
6581;DHT22;3324;50.796;7.228;2024-02-28T12:13:45;9.40;99.90
6581;DHT22;3324;50.796;7.228;2024-02-28T12:16:11;9.60;99.90
6581;DHT22;3324;50.796;7.228;2024-02-28T12:18:36;9.60;99.90
6581;DHT22;3324;50.796;7.228;2024-02-28T12:21:02;9.70;99.90
6581;DHT22;3324;50.796;7.228;2024-02-28T12:23:29;9.80;99.90
6581;DHT22;3324;50.796;7.228;2024-02-28T12:25:54;9.80;99.90
6581;DHT22;3324;50.796;7.228;2024-02-28T12:28:20;9.90;99.90
6581;DHT22;3324;50.796;7.228;2024-02-28T12:30:45;10.00;99.90
6581;DHT22;3324;50.796;7.228;2024-02-28T12:33:11;10.10;99.90
6581;DHT22;3324;50.796;7.228;2024-02-28T12:35:39;10.30;99.90
6581;DHT22;3324;50.796;7.228;2024-02-28T12:38:05;10.40;99.90
6581;DHT22;3324;50.796;7.228;2024-02-28T12:40:30;10.40;99.90
6581;DHT22;3324;50.796;7.228;2024-02-28T12:42:56;10.40;99.90
6581;DHT22;3324;50.796;7.228;2024-02-28T12:45:21;10.50;99.90
6581;DHT22;3324;50.796;7.228;2024-02-28T12:47:47;10.60;99.90
6581;DHT22;3324;50.796;7.228;2024-02-28T12:50:13;10.70;99.90
6581;DHT22;3324;50.796;7.228;2024-02-28T12:52:38;10.70;99.90
6581;DHT22;3324;50.796;7.228;2024-02-28T12:55:04;10.70;99.90
6581;DHT22;3324;50.796;7.228;2024-02-28T12:57:29;10.60;99.90
6581;DHT22;3324;50.796;7.228;2024-02-28T12:59:55;10.60;99.90
6581;DHT22;3324;50.796;7.228;2024-02-28T13:02:21;10.70;99.90
6581;DHT22;3324;50.796;7.228;2024-02-28T13:19:11;10.90;99.90
6581;DHT22;3324;50.796;7.228;2024-02-28T13:21:36;11.00;99.90
6581;DHT22;3324;50.796;7.228;2024-02-28T13:24:02;11.10;99.90
6581;DHT22;3324;50.796;7.228;2024-02-28T13:26:28;11.30;99.90
6581;DHT22;3324;50.796;7.228;2024-02-28T13:28:54;11.30;99.90
6581;DHT22;3324;50.796;7.228;2024-02-28T13:31:20;11.20;99.90
6581;DHT22;3324;50.796;7.228;2024-02-28T13:56:24;11.10;99.90
6581;DHT22;3324;50.796;7.228;2024-02-28T13:58:51;11.10;99.90
6581;DHT22;3324;50.796;7.228;2024-02-28T14:01:17;11.10;99.90
6581;DHT22;3324;50.796;7.228;2024-02-28T14:03:44;11.20;99.90
6581;DHT22;3324;50.796;7.228;2024-02-28T14:06:10;11.20;99.90
6581;DHT22;3324;50.796;7.228;2024-02-28T14:08:35;11.10;99.90
6581;DHT22;3324;50.796;7.228;2024-02-28T14:11:01;11.20;99.90
6581;DHT22;3324;50.796;7.228;2024-02-28T14:13:27;11.20;99.90
6581;DHT22;3324;50.796;7.228;2024-02-28T14:15:52;11.20;99.90
6581;DHT22;3324;50.796;7.228;2024-02-28T14:18:19;11.20;99.90
6581;DHT22;3324;50.796;7.228;2024-02-28T14:20:45;11.20;99.90
6581;DHT22;3324;50.796;7.228;2024-02-28T14:23:10;11.20;99.90
6581;DHT22;3324;50.796;7.228;2024-02-28T14:25:35;11.30;99.90
6581;DHT22;3324;50.796;7.228;2024-02-28T14:28:01;11.20;99.90
6581;DHT22;3324;50.796;7.228;2024-02-28T14:30:26;11.20;99.90
6581;DHT22;3324;50.796;7.228;2024-02-28T14:32:52;11.10;99.90
6581;DHT22;3324;50.796;7.228;2024-02-28T14:35:17;11.20;99.90
6581;DHT22;3324;50.796;7.228;2024-02-28T14:37:43;11.20;99.90
6581;DHT22;3324;50.796;7.228;2024-02-28T14:40:09;11.20;99.90
6581;DHT22;3324;50.796;7.228;2024-02-28T14:42:38;11.20;99.90
6581;DHT22;3324;50.796;7.228;2024-02-28T14:45:07;11.20;99.90
6581;DHT22;3324;50.796;7.228;2024-02-28T14:47:34;11.30;99.90
6581;DHT22;3324;50.796;7.228;2024-02-28T14:50:04;11.20;99.90
6581;DHT22;3324;50.796;7.228;2024-02-28T14:52:31;11.20;99.90
6581;DHT22;3324;50.796;7.228;2024-02-28T14:54:57;11.20;99.90
6581;DHT22;3324;50.796;7.228;2024-02-28T14:57:23;11.20;99.90
6581;DHT22;3324;50.796;7.228;2024-02-28T14:59:48;11.10;99.90
6581;DHT22;3324;50.796;7.228;2024-02-28T15:02:14;11.10;99.90
6581;DHT22;3324;50.796;7.228;2024-02-28T15:04:40;11.20;99.90
6581;DHT22;3324;50.796;7.228;2024-02-28T15:07:06;11.20;99.90
6581;DHT22;3324;50.796;7.228;2024-02-28T15:09:31;11.20;99.90
6581;DHT22;3324;50.796;7.228;2024-02-28T15:11:58;11.20;99.90
6581;DHT22;3324;50.796;7.228;2024-02-28T15:14:24;11.20;99.90
6581;DHT22;3324;50.796;7.228;2024-02-28T15:16:50;11.30;99.90
6581;DHT22;3324;50.796;7.228;2024-02-28T15:19:17;11.30;99.90
6581;DHT22;3324;50.796;7.228;2024-02-28T15:21:42;11.20;99.90
6581;DHT22;3324;50.796;7.228;2024-02-28T15:24:08;11.20;99.90
6581;DHT22;3324;50.796;7.228;2024-02-28T15:26:33;11.20;99.90
6581;DHT22;3324;50.796;7.228;2024-02-28T15:28:59;11.30;99.90
6581;DHT22;3324;50.796;7.228;2024-02-28T15:31:24;11.30;99.90
6581;DHT22;3324;50.796;7.228;2024-02-28T15:33:50;11.30;99.90
6581;DHT22;3324;50.796;7.228;2024-02-28T15:36:15;11.20;99.90
6581;DHT22;3324;50.796;7.228;2024-02-28T15:38:41;11.20;99.90
6581;DHT22;3324;50.796;7.228;2024-02-28T15:41:07;11.20;99.90
6581;DHT22;3324;50.796;7.228;2024-02-28T15:43:33;11.10;99.90
6581;DHT22;3324;50.796;7.228;2024-02-28T15:46:00;11.10;99.90
6581;DHT22;3324;50.796;7.228;2024-02-28T15:48:25;11.10;99.90
6581;DHT22;3324;50.796;7.228;2024-02-28T15:50:50;11.10;99.90
6581;DHT22;3324;50.796;7.228;2024-02-28T15:53:18;11.00;99.90
6581;DHT22;3324;50.796;7.228;2024-02-28T15:55:43;11.00;99.90
6581;DHT22;3324;50.796;7.228;2024-02-28T15:58:09;11.00;99.90
6581;DHT22;3324;50.796;7.228;2024-02-28T16:00:34;11.00;99.90
6581;DHT22;3324;50.796;7.228;2024-02-28T16:03:00;11.00;99.90
6581;DHT22;3324;50.796;7.228;2024-02-28T16:05:25;10.90;99.90
6581;DHT22;3324;50.796;7.228;2024-02-28T16:07:53;10.90;99.90
6581;DHT22;3324;50.796;7.228;2024-02-28T16:10:19;11.00;99.90
6581;DHT22;3324;50.796;7.228;2024-02-28T16:12:45;11.00;99.90
6581;DHT22;3324;50.796;7.228;2024-02-28T16:15:11;10.90;99.90
6581;DHT22;3324;50.796;7.228;2024-02-28T16:17:37;10.90;99.90
6581;DHT22;3324;50.796;7.228;2024-02-28T16:20:02;10.90;99.90
6581;DHT22;3324;50.796;7.228;2024-02-28T16:22:29;10.90;99.90
6581;DHT22;3324;50.796;7.228;2024-02-28T16:24:54;10.80;99.90
6581;DHT22;3324;50.796;7.228;2024-02-28T16:27:20;10.70;99.90
6581;DHT22;3324;50.796;7.228;2024-02-28T16:29:45;10.70;99.90
6581;DHT22;3324;50.796;7.228;2024-02-28T16:32:11;10.70;99.90
6581;DHT22;3324;50.796;7.228;2024-02-28T16:34:36;10.70;99.90
6581;DHT22;3324;50.796;7.228;2024-02-28T16:37:02;10.70;99.90
6581;DHT22;3324;50.796;7.228;2024-02-28T16:39:28;10.60;99.90
6581;DHT22;3324;50.796;7.228;2024-02-28T16:41:55;10.60;99.90